sensor_id;sensor_type;location;lat;lon;timestamp;P1;durP1;ratioP1;P2;durP2;ratioP2
39620;SDS011;25309;48.686;9.170;2024-02-26T00:01:05;3.30;;;2.67;;
39620;SDS011;25309;48.686;9.170;2024-02-26T00:03:32;4.43;;;2.70;;
39620;SDS011;25309;48.686;9.170;2024-02-26T00:06:02;4.17;;;2.37;;
39620;SDS011;25309;48.686;9.170;2024-02-26T00:08:29;3.47;;;2.40;;
39620;SDS011;25309;48.686;9.170;2024-02-26T00:10:56;3.70;;;2.50;;
39620;SDS011;25309;48.686;9.170;2024-02-26T00:13:23;3.80;;;2.23;;
39620;SDS011;25309;48.686;9.170;2024-02-26T00:15:50;5.43;;;3.50;;
39620;SDS011;25309;48.686;9.170;2024-02-26T00:18:18;4.40;;;2.80;;
39620;SDS011;25309;48.686;9.170;2024-02-26T00:20:46;5.07;;;3.03;;
39620;SDS011;25309;48.686;9.170;2024-02-26T00:23:14;3.77;;;2.60;;
39620;SDS011;25309;48.686;9.170;2024-02-26T00:25:41;5.37;;;3.07;;
39620;SDS011;25309;48.686;9.170;2024-02-26T00:28:09;4.40;;;3.00;;
39620;SDS011;25309;48.686;9.170;2024-02-26T00:30:36;3.50;;;2.20;;
39620;SDS011;25309;48.686;9.170;2024-02-26T00:33:03;3.60;;;2.63;;
39620;SDS011;25309;48.686;9.170;2024-02-26T00:35:32;3.73;;;2.33;;
39620;SDS011;25309;48.686;9.170;2024-02-26T00:37:59;5.50;;;3.07;;
39620;SDS011;25309;48.686;9.170;2024-02-26T00:40:27;5.07;;;2.60;;
39620;SDS011;25309;48.686;9.170;2024-02-26T00:42:54;3.73;;;2.30;;
39620;SDS011;25309;48.686;9.170;2024-02-26T00:45:21;3.97;;;2.80;;
39620;SDS011;25309;48.686;9.170;2024-02-26T00:47:48;3.87;;;2.80;;
39620;SDS011;25309;48.686;9.170;2024-02-26T00:50:16;3.40;;;2.50;;
39620;SDS011;25309;48.686;9.170;2024-02-26T00:52:44;3.77;;;2.50;;
39620;SDS011;25309;48.686;9.170;2024-02-26T00:55:11;4.67;;;2.93;;
39620;SDS011;25309;48.686;9.170;2024-02-26T00:57:38;4.50;;;2.90;;
39620;SDS011;25309;48.686;9.170;2024-02-26T01:00:07;4.53;;;3.40;;
39620;SDS011;25309;48.686;9.170;2024-02-26T01:02:37;4.70;;;2.67;;
39620;SDS011;25309;48.686;9.170;2024-02-26T01:05:05;4.83;;;2.53;;
39620;SDS011;25309;48.686;9.170;2024-02-26T01:07:33;3.80;;;2.40;;
39620;SDS011;25309;48.686;9.170;2024-02-26T01:10:04;3.70;;;2.83;;
39620;SDS011;25309;48.686;9.170;2024-02-26T01:12:32;6.20;;;3.37;;
39620;SDS011;25309;48.686;9.170;2024-02-26T01:15:00;4.37;;;3.00;;
39620;SDS011;25309;48.686;9.170;2024-02-26T01:17:28;4.60;;;2.80;;
39620;SDS011;25309;48.686;9.170;2024-02-26T01:19:55;4.80;;;2.90;;
39620;SDS011;25309;48.686;9.170;2024-02-26T01:22:22;5.20;;;2.57;;
39620;SDS011;25309;48.686;9.170;2024-02-26T01:24:49;3.37;;;2.30;;
39620;SDS011;25309;48.686;9.170;2024-02-26T01:27:18;4.03;;;2.60;;
39620;SDS011;25309;48.686;9.170;2024-02-26T01:29:45;3.57;;;2.43;;
39620;SDS011;25309;48.686;9.170;2024-02-26T01:32:12;3.77;;;2.60;;
39620;SDS011;25309;48.686;9.170;2024-02-26T01:34:39;4.63;;;2.70;;
39620;SDS011;25309;48.686;9.170;2024-02-26T01:37:06;5.57;;;3.27;;
39620;SDS011;25309;48.686;9.170;2024-02-26T01:39:33;4.40;;;3.07;;
39620;SDS011;25309;48.686;9.170;2024-02-26T01:42:00;5.00;;;2.97;;
39620;SDS011;25309;48.686;9.170;2024-02-26T01:44:29;3.40;;;2.53;;
39620;SDS011;25309;48.686;9.170;2024-02-26T01:46:56;4.70;;;3.20;;
39620;SDS011;25309;48.686;9.170;2024-02-26T01:49:23;4.77;;;3.10;;
39620;SDS011;25309;48.686;9.170;2024-02-26T01:51:51;4.30;;;2.73;;
39620;SDS011;25309;48.686;9.170;2024-02-26T01:54:18;5.43;;;2.60;;
39620;SDS011;25309;48.686;9.170;2024-02-26T01:56:45;3.70;;;2.40;;
39620;SDS011;25309;48.686;9.170;2024-02-26T01:59:12;3.20;;;1.80;;
39620;SDS011;25309;48.686;9.170;2024-02-26T02:01:41;2.50;;;1.67;;
39620;SDS011;25309;48.686;9.170;2024-02-26T02:04:13;1.73;;;1.40;;
39620;SDS011;25309;48.686;9.170;2024-02-26T02:06:42;1.67;;;1.27;;
39620;SDS011;25309;48.686;9.170;2024-02-26T02:09:11;2.33;;;1.40;;
39620;SDS011;25309;48.686;9.170;2024-02-26T02:11:38;1.50;;;1.23;;
39620;SDS011;25309;48.686;9.170;2024-02-26T02:14:06;1.30;;;1.00;;
39620;SDS011;25309;48.686;9.170;2024-02-26T02:16:33;1.53;;;1.20;;
39620;SDS011;25309;48.686;9.170;2024-02-26T02:19:01;1.17;;;1.00;;
39620;SDS011;25309;48.686;9.170;2024-02-26T02:21:30;1.67;;;1.10;;
39620;SDS011;25309;48.686;9.170;2024-02-26T02:23:57;1.93;;;1.27;;
39620;SDS011;25309;48.686;9.170;2024-02-26T02:26:24;2.50;;;1.00;;
39620;SDS011;25309;48.686;9.170;2024-02-26T02:28:51;2.00;;;1.10;;
39620;SDS011;25309;48.686;9.170;2024-02-26T02:31:19;2.47;;;1.43;;
39620;SDS011;25309;48.686;9.170;2024-02-26T02:33:46;2.07;;;1.37;;
39620;SDS011;25309;48.686;9.170;2024-02-26T02:36:13;1.67;;;1.20;;
39620;SDS011;25309;48.686;9.170;2024-02-26T02:38:49;1.30;;;1.20;;
39620;SDS011;25309;48.686;9.170;2024-02-26T02:41:17;2.03;;;1.50;;
39620;SDS011;25309;48.686;9.170;2024-02-26T02:43:44;2.20;;;1.30;;
39620;SDS011;25309;48.686;9.170;2024-02-26T02:46:11;1.57;;;1.00;;
39620;SDS011;25309;48.686;9.170;2024-02-26T02:48:38;1.83;;;1.10;;
39620;SDS011;25309;48.686;9.170;2024-02-26T02:51:07;2.40;;;1.20;;
39620;SDS011;25309;48.686;9.170;2024-02-26T02:53:35;1.57;;;1.23;;
39620;SDS011;25309;48.686;9.170;2024-02-26T02:56:04;1.43;;;0.90;;
39620;SDS011;25309;48.686;9.170;2024-02-26T02:58:31;1.30;;;0.90;;
39620;SDS011;25309;48.686;9.170;2024-02-26T03:00:58;1.50;;;1.00;;
39620;SDS011;25309;48.686;9.170;2024-02-26T03:03:27;1.27;;;1.03;;
39620;SDS011;25309;48.686;9.170;2024-02-26T03:05:55;1.27;;;1.07;;
39620;SDS011;25309;48.686;9.170;2024-02-26T03:08:23;1.10;;;1.00;;
39620;SDS011;25309;48.686;9.170;2024-02-26T03:10:52;1.07;;;0.70;;
39620;SDS011;25309;48.686;9.170;2024-02-26T03:13:20;1.27;;;0.80;;
39620;SDS011;25309;48.686;9.170;2024-02-26T03:15:47;0.83;;;0.70;;
39620;SDS011;25309;48.686;9.170;2024-02-26T03:18:14;0.83;;;0.70;;
39620;SDS011;25309;48.686;9.170;2024-02-26T03:20:41;1.23;;;0.70;;
39620;SDS011;25309;48.686;9.170;2024-02-26T03:23:08;0.50;;;0.50;;
39620;SDS011;25309;48.686;9.170;2024-02-26T03:25:38;1.37;;;0.60;;
39620;SDS011;25309;48.686;9.170;2024-02-26T03:28:05;0.30;;;0.30;;
39620;SDS011;25309;48.686;9.170;2024-02-26T03:30:34;0.50;;;0.40;;
39620;SDS011;25309;48.686;9.170;2024-02-26T03:33:01;0.60;;;0.50;;
39620;SDS011;25309;48.686;9.170;2024-02-26T03:35:29;0.50;;;0.50;;
39620;SDS011;25309;48.686;9.170;2024-02-26T03:37:56;0.47;;;0.47;;
39620;SDS011;25309;48.686;9.170;2024-02-26T03:40:23;0.50;;;0.50;;
39620;SDS011;25309;48.686;9.170;2024-02-26T03:42:50;0.40;;;0.40;;
39620;SDS011;25309;48.686;9.170;2024-02-26T03:45:20;0.57;;;0.40;;
39620;SDS011;25309;48.686;9.170;2024-02-26T03:47:48;0.80;;;0.40;;
39620;SDS011;25309;48.686;9.170;2024-02-26T03:50:15;0.80;;;0.50;;
39620;SDS011;25309;48.686;9.170;2024-02-26T03:52:43;0.93;;;0.73;;
39620;SDS011;25309;48.686;9.170;2024-02-26T03:55:09;0.80;;;0.70;;
39620;SDS011;25309;48.686;9.170;2024-02-26T03:57:36;0.80;;;0.80;;
39620;SDS011;25309;48.686;9.170;2024-02-26T04:00:04;1.10;;;0.90;;
39620;SDS011;25309;48.686;9.170;2024-02-26T04:02:36;2.77;;;1.47;;
39620;SDS011;25309;48.686;9.170;2024-02-26T04:05:04;2.60;;;1.47;;
39620;SDS011;25309;48.686;9.170;2024-02-26T04:07:35;1.90;;;1.40;;
39620;SDS011;25309;48.686;9.170;2024-02-26T04:10:02;4.30;;;1.93;;
39620;SDS011;25309;48.686;9.170;2024-02-26T04:12:32;9.73;;;5.20;;
39620;SDS011;25309;48.686;9.170;2024-02-26T04:14:59;3.73;;;2.70;;
39620;SDS011;25309;48.686;9.170;2024-02-26T04:17:26;3.17;;;2.20;;
39620;SDS011;25309;48.686;9.170;2024-02-26T04:19:53;2.23;;;1.83;;
39620;SDS011;25309;48.686;9.170;2024-02-26T04:22:21;3.27;;;2.20;;
39620;SDS011;25309;48.686;9.170;2024-02-26T04:24:48;3.40;;;2.00;;
39620;SDS011;25309;48.686;9.170;2024-02-26T04:27:15;2.87;;;2.13;;
39620;SDS011;25309;48.686;9.170;2024-02-26T04:29:42;3.20;;;1.90;;
39620;SDS011;25309;48.686;9.170;2024-02-26T04:32:09;3.27;;;1.90;;
39620;SDS011;25309;48.686;9.170;2024-02-26T04:34:36;3.13;;;2.30;;
39620;SDS011;25309;48.686;9.170;2024-02-26T04:37:04;3.37;;;1.90;;
39620;SDS011;25309;48.686;9.170;2024-02-26T04:39:32;2.53;;;1.90;;
39620;SDS011;25309;48.686;9.170;2024-02-26T04:41:59;3.00;;;2.30;;
39620;SDS011;25309;48.686;9.170;2024-02-26T04:44:30;3.00;;;1.90;;
39620;SDS011;25309;48.686;9.170;2024-02-26T04:46:57;3.67;;;2.10;;
39620;SDS011;25309;48.686;9.170;2024-02-26T04:49:24;3.37;;;2.00;;
39620;SDS011;25309;48.686;9.170;2024-02-26T04:51:51;3.27;;;1.90;;
39620;SDS011;25309;48.686;9.170;2024-02-26T04:54:18;2.97;;;1.80;;
39620;SDS011;25309;48.686;9.170;2024-02-26T04:56:46;3.00;;;1.77;;
39620;SDS011;25309;48.686;9.170;2024-02-26T04:59:14;3.53;;;1.90;;
39620;SDS011;25309;48.686;9.170;2024-02-26T05:01:41;3.10;;;2.00;;
39620;SDS011;25309;48.686;9.170;2024-02-26T05:04:08;3.40;;;1.90;;
39620;SDS011;25309;48.686;9.170;2024-02-26T05:06:36;2.47;;;1.70;;
39620;SDS011;25309;48.686;9.170;2024-02-26T05:09:04;2.50;;;1.90;;
39620;SDS011;25309;48.686;9.170;2024-02-26T05:11:31;2.73;;;1.73;;
39620;SDS011;25309;48.686;9.170;2024-02-26T05:13:59;3.37;;;1.60;;
39620;SDS011;25309;48.686;9.170;2024-02-26T05:16:27;1.80;;;1.50;;
39620;SDS011;25309;48.686;9.170;2024-02-26T05:18:56;2.53;;;1.80;;
39620;SDS011;25309;48.686;9.170;2024-02-26T05:21:23;3.43;;;1.67;;
39620;SDS011;25309;48.686;9.170;2024-02-26T05:23:51;3.00;;;1.70;;
39620;SDS011;25309;48.686;9.170;2024-02-26T05:26:20;3.60;;;2.10;;
39620;SDS011;25309;48.686;9.170;2024-02-26T05:28:47;4.47;;;1.80;;
39620;SDS011;25309;48.686;9.170;2024-02-26T05:31:16;2.73;;;1.93;;
39620;SDS011;25309;48.686;9.170;2024-02-26T05:33:44;2.50;;;1.80;;
39620;SDS011;25309;48.686;9.170;2024-02-26T05:36:17;5.63;;;3.10;;
39620;SDS011;25309;48.686;9.170;2024-02-26T05:38:45;4.17;;;2.90;;
39620;SDS011;25309;48.686;9.170;2024-02-26T05:41:13;3.00;;;2.10;;
39620;SDS011;25309;48.686;9.170;2024-02-26T05:43:41;4.60;;;2.33;;
39620;SDS011;25309;48.686;9.170;2024-02-26T05:46:08;4.60;;;2.30;;
39620;SDS011;25309;48.686;9.170;2024-02-26T05:48:36;2.77;;;2.00;;
39620;SDS011;25309;48.686;9.170;2024-02-26T05:51:04;2.80;;;2.10;;
39620;SDS011;25309;48.686;9.170;2024-02-26T05:53:31;4.97;;;2.33;;
39620;SDS011;25309;48.686;9.170;2024-02-26T05:55:58;3.00;;;2.40;;
39620;SDS011;25309;48.686;9.170;2024-02-26T05:58:25;4.00;;;2.30;;
39620;SDS011;25309;48.686;9.170;2024-02-26T06:00:52;3.03;;;2.10;;
39620;SDS011;25309;48.686;9.170;2024-02-26T06:03:19;2.57;;;1.97;;
39620;SDS011;25309;48.686;9.170;2024-02-26T06:05:47;3.33;;;2.30;;
39620;SDS011;25309;48.686;9.170;2024-02-26T06:08:14;3.77;;;1.90;;
39620;SDS011;25309;48.686;9.170;2024-02-26T06:10:41;2.73;;;1.87;;
39620;SDS011;25309;48.686;9.170;2024-02-26T06:13:08;2.47;;;1.63;;
39620;SDS011;25309;48.686;9.170;2024-02-26T06:15:35;3.40;;;2.00;;
39620;SDS011;25309;48.686;9.170;2024-02-26T06:18:02;3.17;;;1.90;;
39620;SDS011;25309;48.686;9.170;2024-02-26T06:20:30;2.40;;;1.63;;
39620;SDS011;25309;48.686;9.170;2024-02-26T06:22:58;4.10;;;1.80;;
39620;SDS011;25309;48.686;9.170;2024-02-26T06:25:25;3.20;;;1.90;;
39620;SDS011;25309;48.686;9.170;2024-02-26T06:27:52;3.20;;;1.90;;
39620;SDS011;25309;48.686;9.170;2024-02-26T06:30:19;2.80;;;1.83;;
39620;SDS011;25309;48.686;9.170;2024-02-26T06:32:46;3.97;;;1.93;;
39620;SDS011;25309;48.686;9.170;2024-02-26T06:35:13;3.87;;;2.47;;
39620;SDS011;25309;48.686;9.170;2024-02-26T06:37:40;4.17;;;2.10;;
39620;SDS011;25309;48.686;9.170;2024-02-26T06:40:09;3.47;;;2.00;;
39620;SDS011;25309;48.686;9.170;2024-02-26T06:42:36;3.23;;;1.90;;
39620;SDS011;25309;48.686;9.170;2024-02-26T06:45:04;3.03;;;2.00;;
39620;SDS011;25309;48.686;9.170;2024-02-26T06:47:31;3.13;;;2.00;;
39620;SDS011;25309;48.686;9.170;2024-02-26T06:49:59;3.23;;;2.03;;
39620;SDS011;25309;48.686;9.170;2024-02-26T06:52:27;2.93;;;2.13;;
39620;SDS011;25309;48.686;9.170;2024-02-26T06:54:54;2.73;;;1.93;;
39620;SDS011;25309;48.686;9.170;2024-02-26T06:57:22;3.53;;;2.10;;
39620;SDS011;25309;48.686;9.170;2024-02-26T06:59:50;3.90;;;1.73;;
39620;SDS011;25309;48.686;9.170;2024-02-26T07:02:17;2.93;;;1.83;;
39620;SDS011;25309;48.686;9.170;2024-02-26T07:04:44;3.50;;;2.10;;
39620;SDS011;25309;48.686;9.170;2024-02-26T07:07:11;2.83;;;1.90;;
39620;SDS011;25309;48.686;9.170;2024-02-26T07:09:41;3.43;;;1.73;;
39620;SDS011;25309;48.686;9.170;2024-02-26T07:12:09;2.87;;;2.00;;
39620;SDS011;25309;48.686;9.170;2024-02-26T07:14:37;2.57;;;1.60;;
39620;SDS011;25309;48.686;9.170;2024-02-26T07:17:04;3.53;;;2.07;;
39620;SDS011;25309;48.686;9.170;2024-02-26T07:19:32;3.33;;;1.70;;
39620;SDS011;25309;48.686;9.170;2024-02-26T07:21:59;2.47;;;1.73;;
39620;SDS011;25309;48.686;9.170;2024-02-26T07:24:29;3.40;;;2.10;;
39620;SDS011;25309;48.686;9.170;2024-02-26T07:26:56;7.73;;;4.77;;
39620;SDS011;25309;48.686;9.170;2024-02-26T07:29:23;7.47;;;4.70;;
39620;SDS011;25309;48.686;9.170;2024-02-26T07:31:51;5.43;;;3.37;;
39620;SDS011;25309;48.686;9.170;2024-02-26T07:34:18;4.53;;;2.90;;
39620;SDS011;25309;48.686;9.170;2024-02-26T07:36:45;3.07;;;1.90;;
39620;SDS011;25309;48.686;9.170;2024-02-26T07:39:12;3.47;;;1.90;;
39620;SDS011;25309;48.686;9.170;2024-02-26T07:41:39;2.50;;;1.73;;
39620;SDS011;25309;48.686;9.170;2024-02-26T07:44:06;3.27;;;1.70;;
39620;SDS011;25309;48.686;9.170;2024-02-26T07:46:33;4.03;;;1.53;;
39620;SDS011;25309;48.686;9.170;2024-02-26T07:49:03;3.83;;;1.90;;
39620;SDS011;25309;48.686;9.170;2024-02-26T07:51:30;3.17;;;1.80;;
39620;SDS011;25309;48.686;9.170;2024-02-26T07:53:57;5.13;;;2.50;;
39620;SDS011;25309;48.686;9.170;2024-02-26T07:56:24;5.53;;;2.27;;
39620;SDS011;25309;48.686;9.170;2024-02-26T07:58:51;2.80;;;2.17;;
39620;SDS011;25309;48.686;9.170;2024-02-26T08:01:18;4.63;;;2.37;;
39620;SDS011;25309;48.686;9.170;2024-02-26T08:03:45;5.43;;;2.57;;
39620;SDS011;25309;48.686;9.170;2024-02-26T08:06:13;3.97;;;2.63;;
39620;SDS011;25309;48.686;9.170;2024-02-26T08:08:41;5.20;;;2.70;;
39620;SDS011;25309;48.686;9.170;2024-02-26T08:11:08;4.07;;;2.30;;
39620;SDS011;25309;48.686;9.170;2024-02-26T08:13:35;4.17;;;2.20;;
39620;SDS011;25309;48.686;9.170;2024-02-26T08:16:02;3.03;;;2.03;;
39620;SDS011;25309;48.686;9.170;2024-02-26T08:18:29;5.90;;;2.10;;
39620;SDS011;25309;48.686;9.170;2024-02-26T08:20:57;3.80;;;1.93;;
39620;SDS011;25309;48.686;9.170;2024-02-26T08:23:25;4.20;;;2.27;;
39620;SDS011;25309;48.686;9.170;2024-02-26T08:25:52;3.80;;;2.07;;
39620;SDS011;25309;48.686;9.170;2024-02-26T08:28:19;4.57;;;2.20;;
39620;SDS011;25309;48.686;9.170;2024-02-26T08:30:46;2.67;;;1.83;;
39620;SDS011;25309;48.686;9.170;2024-02-26T08:33:13;3.87;;;1.87;;
39620;SDS011;25309;48.686;9.170;2024-02-26T08:35:40;2.57;;;1.80;;
39620;SDS011;25309;48.686;9.170;2024-02-26T08:38:07;2.43;;;1.53;;
39620;SDS011;25309;48.686;9.170;2024-02-26T08:40:36;3.37;;;2.00;;
39620;SDS011;25309;48.686;9.170;2024-02-26T08:43:03;3.13;;;1.80;;
39620;SDS011;25309;48.686;9.170;2024-02-26T08:45:30;2.83;;;1.80;;
39620;SDS011;25309;48.686;9.170;2024-02-26T08:47:57;4.57;;;1.90;;
39620;SDS011;25309;48.686;9.170;2024-02-26T08:50:25;3.33;;;1.90;;
39620;SDS011;25309;48.686;9.170;2024-02-26T08:52:53;4.97;;;1.90;;
39620;SDS011;25309;48.686;9.170;2024-02-26T08:55:20;2.70;;;1.83;;
39620;SDS011;25309;48.686;9.170;2024-02-26T08:57:48;4.40;;;1.80;;
39620;SDS011;25309;48.686;9.170;2024-02-26T09:00:16;3.57;;;1.87;;
39620;SDS011;25309;48.686;9.170;2024-02-26T09:02:44;4.77;;;2.30;;
39620;SDS011;25309;48.686;9.170;2024-02-26T09:05:11;3.90;;;1.87;;
39620;SDS011;25309;48.686;9.170;2024-02-26T09:07:38;4.83;;;2.33;;
39620;SDS011;25309;48.686;9.170;2024-02-26T09:10:05;5.47;;;2.80;;
39620;SDS011;25309;48.686;9.170;2024-02-26T09:12:36;4.60;;;2.63;;
39620;SDS011;25309;48.686;9.170;2024-02-26T09:15:06;5.23;;;3.00;;
39620;SDS011;25309;48.686;9.170;2024-02-26T09:17:33;4.93;;;2.20;;
39620;SDS011;25309;48.686;9.170;2024-02-26T09:20:01;3.67;;;2.50;;
39620;SDS011;25309;48.686;9.170;2024-02-26T09:22:29;4.17;;;2.70;;
39620;SDS011;25309;48.686;9.170;2024-02-26T09:24:56;4.70;;;2.43;;
39620;SDS011;25309;48.686;9.170;2024-02-26T09:27:23;5.60;;;2.80;;
39620;SDS011;25309;48.686;9.170;2024-02-26T09:29:50;3.77;;;2.40;;
39620;SDS011;25309;48.686;9.170;2024-02-26T09:32:18;3.43;;;2.13;;
39620;SDS011;25309;48.686;9.170;2024-02-26T09:34:45;4.07;;;2.83;;
39620;SDS011;25309;48.686;9.170;2024-02-26T09:37:12;3.87;;;2.07;;
39620;SDS011;25309;48.686;9.170;2024-02-26T09:39:47;2.90;;;1.97;;
39620;SDS011;25309;48.686;9.170;2024-02-26T09:42:14;3.40;;;2.17;;
39620;SDS011;25309;48.686;9.170;2024-02-26T09:44:45;5.00;;;2.60;;
39620;SDS011;25309;48.686;9.170;2024-02-26T09:47:15;5.63;;;2.90;;
39620;SDS011;25309;48.686;9.170;2024-02-26T09:49:44;3.93;;;2.63;;
39620;SDS011;25309;48.686;9.170;2024-02-26T09:52:13;4.67;;;2.47;;
39620;SDS011;25309;48.686;9.170;2024-02-26T09:54:42;4.03;;;2.70;;
39620;SDS011;25309;48.686;9.170;2024-02-26T09:57:13;3.70;;;2.27;;
39620;SDS011;25309;48.686;9.170;2024-02-26T09:59:43;5.80;;;2.40;;
39620;SDS011;25309;48.686;9.170;2024-02-26T10:02:13;3.17;;;2.17;;
39620;SDS011;25309;48.686;9.170;2024-02-26T10:04:41;4.27;;;2.20;;
39620;SDS011;25309;48.686;9.170;2024-02-26T10:07:16;4.90;;;2.80;;
39620;SDS011;25309;48.686;9.170;2024-02-26T10:09:44;3.43;;;2.50;;
39620;SDS011;25309;48.686;9.170;2024-02-26T10:12:11;4.73;;;2.90;;
39620;SDS011;25309;48.686;9.170;2024-02-26T10:14:38;4.27;;;2.77;;
39620;SDS011;25309;48.686;9.170;2024-02-26T10:17:06;7.20;;;2.60;;
39620;SDS011;25309;48.686;9.170;2024-02-26T10:19:35;4.53;;;2.90;;
39620;SDS011;25309;48.686;9.170;2024-02-26T10:22:05;3.73;;;2.27;;
39620;SDS011;25309;48.686;9.170;2024-02-26T10:24:33;4.30;;;2.00;;
39620;SDS011;25309;48.686;9.170;2024-02-26T10:27:01;3.03;;;2.17;;
39620;SDS011;25309;48.686;9.170;2024-02-26T10:29:29;3.27;;;2.33;;
39620;SDS011;25309;48.686;9.170;2024-02-26T10:31:57;4.10;;;1.80;;
39620;SDS011;25309;48.686;9.170;2024-02-26T10:34:24;4.07;;;2.13;;
39620;SDS011;25309;48.686;9.170;2024-02-26T10:36:53;2.67;;;2.20;;
39620;SDS011;25309;48.686;9.170;2024-02-26T10:39:21;3.03;;;2.30;;
39620;SDS011;25309;48.686;9.170;2024-02-26T10:41:50;3.27;;;2.30;;
39620;SDS011;25309;48.686;9.170;2024-02-26T10:44:17;3.77;;;2.40;;
39620;SDS011;25309;48.686;9.170;2024-02-26T10:46:46;4.50;;;2.40;;
39620;SDS011;25309;48.686;9.170;2024-02-26T10:49:14;3.53;;;2.30;;
39620;SDS011;25309;48.686;9.170;2024-02-26T10:51:45;4.00;;;2.73;;
39620;SDS011;25309;48.686;9.170;2024-02-26T10:54:19;4.70;;;2.30;;
39620;SDS011;25309;48.686;9.170;2024-02-26T10:56:46;2.97;;;2.37;;
39620;SDS011;25309;48.686;9.170;2024-02-26T10:59:18;3.17;;;2.13;;
39620;SDS011;25309;48.686;9.170;2024-02-26T11:01:47;2.93;;;2.30;;
39620;SDS011;25309;48.686;9.170;2024-02-26T11:04:16;3.37;;;1.93;;
39620;SDS011;25309;48.686;9.170;2024-02-26T11:06:44;3.70;;;1.70;;
39620;SDS011;25309;48.686;9.170;2024-02-26T11:09:12;2.47;;;1.80;;
39620;SDS011;25309;48.686;9.170;2024-02-26T11:11:41;3.33;;;2.20;;
39620;SDS011;25309;48.686;9.170;2024-02-26T11:14:10;2.80;;;2.10;;
39620;SDS011;25309;48.686;9.170;2024-02-26T11:16:39;3.83;;;2.33;;
39620;SDS011;25309;48.686;9.170;2024-02-26T11:19:09;4.07;;;2.40;;
39620;SDS011;25309;48.686;9.170;2024-02-26T11:21:39;3.80;;;2.03;;
39620;SDS011;25309;48.686;9.170;2024-02-26T11:24:08;2.53;;;2.00;;
39620;SDS011;25309;48.686;9.170;2024-02-26T11:26:40;5.47;;;2.27;;
39620;SDS011;25309;48.686;9.170;2024-02-26T11:29:14;2.63;;;1.90;;
39620;SDS011;25309;48.686;9.170;2024-02-26T11:31:46;2.10;;;1.90;;
39620;SDS011;25309;48.686;9.170;2024-02-26T11:34:13;3.23;;;1.80;;
39620;SDS011;25309;48.686;9.170;2024-02-26T11:36:41;2.77;;;1.70;;
39620;SDS011;25309;48.686;9.170;2024-02-26T11:39:08;2.73;;;1.80;;
39620;SDS011;25309;48.686;9.170;2024-02-26T11:41:39;3.33;;;1.80;;
39620;SDS011;25309;48.686;9.170;2024-02-26T11:44:06;3.23;;;2.50;;
39620;SDS011;25309;48.686;9.170;2024-02-26T11:46:39;4.10;;;1.83;;
39620;SDS011;25309;48.686;9.170;2024-02-26T11:51:59;2.37;;;1.80;;
39620;SDS011;25309;48.686;9.170;2024-02-26T11:54:40;3.13;;;1.80;;
39620;SDS011;25309;48.686;9.170;2024-02-26T11:57:23;1.93;;;1.73;;
39620;SDS011;25309;48.686;9.170;2024-02-26T11:59:55;2.70;;;1.60;;
39620;SDS011;25309;48.686;9.170;2024-02-26T12:02:39;2.23;;;1.70;;
39620;SDS011;25309;48.686;9.170;2024-02-26T12:05:08;4.30;;;1.53;;
39620;SDS011;25309;48.686;9.170;2024-02-26T12:07:45;2.67;;;1.67;;
39620;SDS011;25309;48.686;9.170;2024-02-26T12:10:14;2.53;;;1.60;;
39620;SDS011;25309;48.686;9.170;2024-02-26T12:12:47;2.07;;;1.40;;
39620;SDS011;25309;48.686;9.170;2024-02-26T12:15:14;2.63;;;1.50;;
39620;SDS011;25309;48.686;9.170;2024-02-26T12:17:43;2.13;;;1.50;;
39620;SDS011;25309;48.686;9.170;2024-02-26T12:20:15;2.13;;;1.37;;
39620;SDS011;25309;48.686;9.170;2024-02-26T12:22:44;2.03;;;1.37;;
39620;SDS011;25309;48.686;9.170;2024-02-26T12:25:13;2.37;;;1.50;;
39620;SDS011;25309;48.686;9.170;2024-02-26T12:27:41;1.73;;;1.40;;
39620;SDS011;25309;48.686;9.170;2024-02-26T12:30:08;1.63;;;1.30;;
39620;SDS011;25309;48.686;9.170;2024-02-26T12:32:36;2.30;;;1.43;;
39620;SDS011;25309;48.686;9.170;2024-02-26T12:35:05;2.83;;;1.20;;
39620;SDS011;25309;48.686;9.170;2024-02-26T12:37:33;1.63;;;1.10;;
39620;SDS011;25309;48.686;9.170;2024-02-26T12:40:03;3.83;;;1.23;;
39620;SDS011;25309;48.686;9.170;2024-02-26T12:42:32;1.53;;;1.13;;
39620;SDS011;25309;48.686;9.170;2024-02-26T12:45:06;3.60;;;1.30;;
39620;SDS011;25309;48.686;9.170;2024-02-26T12:47:36;1.47;;;1.10;;
39620;SDS011;25309;48.686;9.170;2024-02-26T12:50:06;2.33;;;0.90;;
39620;SDS011;25309;48.686;9.170;2024-02-26T12:52:37;1.23;;;1.10;;
39620;SDS011;25309;48.686;9.170;2024-02-26T12:55:05;1.97;;;0.90;;
39620;SDS011;25309;48.686;9.170;2024-02-26T12:57:35;1.13;;;1.00;;
39620;SDS011;25309;48.686;9.170;2024-02-26T13:00:04;1.20;;;0.80;;
39620;SDS011;25309;48.686;9.170;2024-02-26T13:02:36;1.10;;;0.90;;
39620;SDS011;25309;48.686;9.170;2024-02-26T13:05:04;1.70;;;1.00;;
39620;SDS011;25309;48.686;9.170;2024-02-26T13:07:34;4.77;;;1.30;;
39620;SDS011;25309;48.686;9.170;2024-02-26T13:10:07;1.90;;;0.87;;
39620;SDS011;25309;48.686;9.170;2024-02-26T13:12:35;1.10;;;0.80;;
39620;SDS011;25309;48.686;9.170;2024-02-26T13:15:02;0.53;;;0.50;;
39620;SDS011;25309;48.686;9.170;2024-02-26T13:17:31;1.10;;;0.80;;
39620;SDS011;25309;48.686;9.170;2024-02-26T13:19:58;1.67;;;0.80;;
39620;SDS011;25309;48.686;9.170;2024-02-26T13:22:27;1.00;;;0.77;;
39620;SDS011;25309;48.686;9.170;2024-02-26T13:24:56;1.70;;;1.10;;
39620;SDS011;25309;48.686;9.170;2024-02-26T13:27:24;2.43;;;0.90;;
39620;SDS011;25309;48.686;9.170;2024-02-26T13:30:01;1.60;;;0.80;;
39620;SDS011;25309;48.686;9.170;2024-02-26T13:32:32;1.83;;;1.00;;
39620;SDS011;25309;48.686;9.170;2024-02-26T13:35:06;1.73;;;0.83;;
39620;SDS011;25309;48.686;9.170;2024-02-26T13:37:35;1.00;;;0.80;;
39620;SDS011;25309;48.686;9.170;2024-02-26T13:40:06;2.23;;;0.90;;
39620;SDS011;25309;48.686;9.170;2024-02-26T13:42:35;0.70;;;0.70;;
39620;SDS011;25309;48.686;9.170;2024-02-26T13:45:03;1.10;;;0.73;;
39620;SDS011;25309;48.686;9.170;2024-02-26T13:47:35;1.87;;;0.70;;
39620;SDS011;25309;48.686;9.170;2024-02-26T13:50:02;1.47;;;0.80;;
39620;SDS011;25309;48.686;9.170;2024-02-26T13:52:29;2.30;;;0.90;;
39620;SDS011;25309;48.686;9.170;2024-02-26T13:55:00;3.23;;;1.40;;
39620;SDS011;25309;48.686;9.170;2024-02-26T13:57:28;3.00;;;1.20;;
39620;SDS011;25309;48.686;9.170;2024-02-26T13:59:56;2.67;;;1.13;;
39620;SDS011;25309;48.686;9.170;2024-02-26T14:02:23;2.87;;;1.00;;
39620;SDS011;25309;48.686;9.170;2024-02-26T14:04:50;2.97;;;1.00;;
39620;SDS011;25309;48.686;9.170;2024-02-26T14:07:17;1.63;;;0.70;;
39620;SDS011;25309;48.686;9.170;2024-02-26T14:09:44;2.63;;;0.77;;
39620;SDS011;25309;48.686;9.170;2024-02-26T14:12:18;0.47;;;0.47;;
39620;SDS011;25309;48.686;9.170;2024-02-26T14:14:50;0.40;;;0.40;;
39620;SDS011;25309;48.686;9.170;2024-02-26T14:17:20;1.90;;;0.60;;
39620;SDS011;25309;48.686;9.170;2024-02-26T14:19:47;0.97;;;0.40;;
39620;SDS011;25309;48.686;9.170;2024-02-26T14:22:14;0.80;;;0.40;;
39620;SDS011;25309;48.686;9.170;2024-02-26T14:24:44;0.57;;;0.30;;
39620;SDS011;25309;48.686;9.170;2024-02-26T14:27:12;0.67;;;0.50;;
39620;SDS011;25309;48.686;9.170;2024-02-26T14:29:43;1.90;;;0.50;;
39620;SDS011;25309;48.686;9.170;2024-02-26T14:32:10;0.67;;;0.50;;
39620;SDS011;25309;48.686;9.170;2024-02-26T14:34:37;1.60;;;0.90;;
39620;SDS011;25309;48.686;9.170;2024-02-26T14:37:05;0.97;;;0.70;;
39620;SDS011;25309;48.686;9.170;2024-02-26T14:39:32;1.70;;;0.73;;
39620;SDS011;25309;48.686;9.170;2024-02-26T14:41:59;1.43;;;0.60;;
39620;SDS011;25309;48.686;9.170;2024-02-26T14:44:27;1.00;;;0.70;;
39620;SDS011;25309;48.686;9.170;2024-02-26T14:46:55;1.67;;;0.93;;
39620;SDS011;25309;48.686;9.170;2024-02-26T14:49:23;1.83;;;0.70;;
39620;SDS011;25309;48.686;9.170;2024-02-26T14:51:50;2.97;;;1.00;;
39620;SDS011;25309;48.686;9.170;2024-02-26T14:54:17;1.30;;;0.73;;
39620;SDS011;25309;48.686;9.170;2024-02-26T14:56:44;3.70;;;1.33;;